createdAt,value
2018-02-11T00:00:17.869Z,1.30
2018-02-11T00:02:45.495Z,1.29
2018-02-11T00:05:13.068Z,1.24
2018-02-11T00:07:40.586Z,1.16
2018-02-11T00:10:08.093Z,1.15
2018-02-11T00:12:35.728Z,1.15
2018-02-11T00:15:03.253Z,1.17
2018-02-11T00:17:30.760Z,1.18
2018-02-11T00:19:58.277Z,1.18
2018-02-11T00:22:25.784Z,1.15
2018-02-11T00:24:53.316Z,1.17
2018-02-11T00:27:20.841Z,1.21
2018-02-11T00:29:48.353Z,1.22
2018-02-11T00:32:15.922Z,1.21
2018-02-11T00:34:43.448Z,1.16
2018-02-11T00:37:10.981Z,1.11
2018-02-11T00:39:38.578Z,1.12
2018-02-11T00:42:06.164Z,1.11
2018-02-11T00:44:33.682Z,1.15
2018-02-11T00:47:01.189Z,1.17
2018-02-11T00:49:28.755Z,1.22
2018-02-11T00:51:56.285Z,1.20
2018-02-11T00:54:23.816Z,1.13
2018-02-11T00:56:51.352Z,1.07
2018-02-11T00:59:18.979Z,1.05
2018-02-11T01:01:46.555Z,1.07
2018-02-11T01:04:14.087Z,1.14
2018-02-11T01:06:41.620Z,1.22
2018-02-11T01:09:09.144Z,1.21
2018-02-11T01:11:36.721Z,1.22
2018-02-11T01:14:04.264Z,1.19
2018-02-11T01:16:31.796Z,1.19
2018-02-11T01:18:59.352Z,1.20
2018-02-11T01:21:27.005Z,1.17
2018-02-11T01:23:54.536Z,1.12
2018-02-11T01:26:22.042Z,1.03
2018-02-11T01:28:49.680Z,1.02
2018-02-11T01:31:17.261Z,1.12
2018-02-11T01:33:44.786Z,1.14
2018-02-11T01:36:12.308Z,1.19
2018-02-11T01:38:39.854Z,1.18
2018-02-11T01:41:07.370Z,1.20
2018-02-11T01:43:34.869Z,1.25
2018-02-11T01:46:02.499Z,1.27
2018-02-11T01:48:30.021Z,1.32
2018-02-11T01:50:57.528Z,1.33
2018-02-11T01:53:25.162Z,1.28
2018-02-11T01:55:52.685Z,1.23
2018-02-11T01:58:20.200Z,1.21
2018-02-11T02:00:47.737Z,1.13
2018-02-11T02:03:15.265Z,1.01
2018-02-11T02:05:42.785Z,1.01
2018-02-11T02:08:10.325Z,0.98
2018-02-11T02:10:37.872Z,0.98
2018-02-11T02:13:05.396Z,0.97
2018-02-11T02:15:32.925Z,0.99
2018-02-11T02:18:00.443Z,0.95
2018-02-11T02:20:27.972Z,0.95
2018-02-11T02:22:55.494Z,0.88
2018-02-11T02:25:23.028Z,0.86
2018-02-11T02:27:50.569Z,0.78
2018-02-11T02:30:18.091Z,0.73
2018-02-11T02:32:45.713Z,0.69
2018-02-11T02:35:13.371Z,0.68
2018-02-11T02:37:40.905Z,0.68
2018-02-11T02:40:08.445Z,0.71
2018-02-11T02:42:36.057Z,0.73
2018-02-11T02:45:03.589Z,0.73
2018-02-11T02:47:31.116Z,0.72
2018-02-11T02:49:58.815Z,0.68
2018-02-11T02:52:26.314Z,0.67
2018-02-11T02:54:53.855Z,0.72
2018-02-11T02:57:21.401Z,0.71
2018-02-11T02:59:48.938Z,0.75
2018-02-11T03:02:16.447Z,0.80
2018-02-11T03:04:43.957Z,0.79
2018-02-11T03:07:11.628Z,0.79
2018-02-11T03:09:39.137Z,0.85
2018-02-11T03:12:06.656Z,0.90
2018-02-11T03:14:34.221Z,0.94
2018-02-11T03:17:01.745Z,0.90
2018-02-11T03:19:29.253Z,0.84
2018-02-11T03:21:56.776Z,0.84
2018-02-11T03:24:24.444Z,0.77
2018-02-11T03:26:52.000Z,0.85
2018-02-11T03:29:19.664Z,0.86
2018-02-11T03:31:47.989Z,0.84
2018-02-11T03:34:15.604Z,0.85
2018-02-11T03:36:43.385Z,0.86
2018-02-11T03:39:10.916Z,0.87
2018-02-11T03:41:38.443Z,0.90
2018-02-11T03:44:05.991Z,0.89
2018-02-11T03:46:33.521Z,0.87
2018-02-11T03:49:01.041Z,0.86
2018-02-11T03:51:28.599Z,0.83
2018-02-11T03:53:56.130Z,0.81
2018-02-11T03:56:23.637Z,0.77
2018-02-11T03:58:51.185Z,0.76
2018-02-11T04:01:18.720Z,0.74
2018-02-11T04:03:46.248Z,0.73
2018-02-11T04:06:13.797Z,0.67
2018-02-11T04:08:41.324Z,0.59
2018-02-11T04:11:08.908Z,0.59
2018-02-11T04:13:36.436Z,0.59
2018-02-11T04:16:03.965Z,0.56
2018-02-11T04:18:31.480Z,0.57
2018-02-11T04:20:59.041Z,0.57
2018-02-11T04:23:26.604Z,0.58
2018-02-11T04:25:54.147Z,0.58
2018-02-11T04:28:21.652Z,0.57
2018-02-11T04:30:49.277Z,0.61
2018-02-11T04:33:16.824Z,0.59
2018-02-11T04:35:44.329Z,0.60
2018-02-11T04:38:11.938Z,0.60
2018-02-11T04:40:39.437Z,0.60
2018-02-11T04:43:06.973Z,0.59
2018-02-11T04:45:34.522Z,0.57
2018-02-11T04:48:02.052Z,0.61
2018-02-11T04:50:29.581Z,0.63
2018-02-11T04:52:57.122Z,0.67
2018-02-11T04:55:24.749Z,0.71
2018-02-11T04:57:52.253Z,0.73
2018-02-11T05:00:19.776Z,0.76
2018-02-11T05:02:47.345Z,0.77
2018-02-11T05:05:14.896Z,0.75
2018-02-11T05:07:42.569Z,0.75
2018-02-11T05:10:10.088Z,0.80
2018-02-11T05:12:37.600Z,0.84
2018-02-11T05:15:05.133Z,0.87
2018-02-11T05:17:32.641Z,0.90
2018-02-11T05:20:00.173Z,0.90
2018-02-11T05:22:27.701Z,0.91
2018-02-11T05:24:55.235Z,0.95
2018-02-11T05:27:22.776Z,0.94
2018-02-11T05:29:50.285Z,0.96
2018-02-11T05:32:17.834Z,0.97
2018-02-11T05:34:45.340Z,0.96
2018-02-11T05:37:12.856Z,0.95
2018-02-11T05:39:40.464Z,0.95
2018-02-11T05:42:07.977Z,0.89
2018-02-11T05:44:35.550Z,0.87
2018-02-11T05:47:03.086Z,0.89
2018-02-11T05:49:30.604Z,0.92
2018-02-11T05:51:58.235Z,0.93
2018-02-11T05:54:25.873Z,0.94
2018-02-11T05:56:53.377Z,0.99
2018-02-11T05:59:20.876Z,1.00
2018-02-11T06:01:48.410Z,1.05
2018-02-11T06:04:15.920Z,1.09
2018-02-11T06:06:43.464Z,1.04
2018-02-11T06:09:11.043Z,1.04
2018-02-11T06:11:38.571Z,1.07
2018-02-11T06:14:06.074Z,1.09
2018-02-11T06:16:33.631Z,1.09
2018-02-11T06:19:01.172Z,1.06
2018-02-11T06:21:28.708Z,1.11
2018-02-11T06:23:56.292Z,1.10
2018-02-11T06:26:23.821Z,1.11
2018-02-11T06:28:51.413Z,1.13
2018-02-11T06:31:18.980Z,1.15
2018-02-11T06:33:46.509Z,1.17
2018-02-11T06:36:14.025Z,1.15
2018-02-11T06:38:41.620Z,1.14
2018-02-11T06:41:09.116Z,1.19
2018-02-11T06:43:36.632Z,1.22
2018-02-11T06:46:04.176Z,1.19
2018-02-11T06:48:31.701Z,1.16
2018-02-11T06:50:59.223Z,1.20
2018-02-11T06:53:26.742Z,1.26
2018-02-11T06:55:54.246Z,1.25
2018-02-11T06:58:21.775Z,1.22
2018-02-11T07:00:49.320Z,1.27
2018-02-11T07:03:16.824Z,1.32
2018-02-11T07:05:44.325Z,1.35
2018-02-11T07:08:11.892Z,1.38
2018-02-11T07:10:39.420Z,1.45
2018-02-11T07:13:06.952Z,1.51
2018-02-11T07:15:34.624Z,1.52
2018-02-11T07:18:02.129Z,1.53
2018-02-11T07:20:31.590Z,1.58
2018-02-11T07:22:59.152Z,1.56
2018-02-11T07:25:26.658Z,1.61
2018-02-11T07:27:54.161Z,1.66
2018-02-11T07:30:21.701Z,1.71
2018-02-11T07:32:49.288Z,1.71
2018-02-11T07:35:16.818Z,1.73
2018-02-11T07:37:44.339Z,1.79
2018-02-11T07:40:11.867Z,1.87
2018-02-11T07:42:39.445Z,1.95
2018-02-11T07:45:06.988Z,2.06
2018-02-11T07:47:34.519Z,2.23
2018-02-11T07:50:02.044Z,2.36
2018-02-11T07:52:29.549Z,2.33
2018-02-11T07:54:57.119Z,2.38
2018-02-11T07:57:24.673Z,2.39
2018-02-11T07:59:52.193Z,2.37
2018-02-11T08:02:19.802Z,2.39
2018-02-11T08:04:47.300Z,2.29
2018-02-11T08:07:14.802Z,2.15
2018-02-11T08:09:42.317Z,2.09
2018-02-11T08:12:09.873Z,2.05
2018-02-11T08:14:37.408Z,2.01
2018-02-11T08:17:04.916Z,1.99
2018-02-11T08:19:32.430Z,2.03
2018-02-11T08:21:59.959Z,2.09
2018-02-11T08:24:27.481Z,2.06
2018-02-11T08:26:55.033Z,2.05
2018-02-11T08:29:22.552Z,2.08
2018-02-11T08:31:50.444Z,2.17
2018-02-11T08:34:17.977Z,2.27
2018-02-11T08:36:45.505Z,2.24
2018-02-11T08:39:13.005Z,2.14
2018-02-11T08:41:40.540Z,2.10
2018-02-11T08:44:08.079Z,2.13
2018-02-11T08:46:35.623Z,2.21
2018-02-11T08:49:03.195Z,2.24
2018-02-11T08:51:30.781Z,2.20
2018-02-11T08:53:58.408Z,2.44
2018-02-11T08:56:26.002Z,2.74
2018-02-11T08:58:53.529Z,2.95
2018-02-11T09:01:21.033Z,2.84
2018-02-11T09:03:48.541Z,2.87
2018-02-11T09:06:16.086Z,2.82
2018-02-11T09:08:43.675Z,2.87
2018-02-11T09:11:11.238Z,2.88
2018-02-11T09:13:38.794Z,2.93
2018-02-11T09:16:06.352Z,3.06
2018-02-11T09:18:33.862Z,3.14
2018-02-11T09:21:01.400Z,3.16
2018-02-11T09:23:28.921Z,3.18
2018-02-11T09:25:56.448Z,3.25
2018-02-11T09:28:23.986Z,3.34
2018-02-11T09:30:51.492Z,3.43
2018-02-11T09:33:19.104Z,3.51
2018-02-11T09:35:46.735Z,3.55
2018-02-11T09:38:14.301Z,3.67
2018-02-11T09:40:41.852Z,3.73
2018-02-11T09:43:09.385Z,3.80
2018-02-11T09:45:36.888Z,3.82
2018-02-11T09:48:04.391Z,3.76
2018-02-11T09:50:31.902Z,3.87
2018-02-11T09:52:59.424Z,3.85
2018-02-11T09:55:27.042Z,3.91
2018-02-11T09:57:54.561Z,3.77
2018-02-11T10:00:22.089Z,3.82
2018-02-11T10:02:49.692Z,3.92
2018-02-11T10:05:17.202Z,3.96
2018-02-11T10:07:44.698Z,3.96
2018-02-11T10:10:12.365Z,3.99
2018-02-11T10:12:39.889Z,4.11
2018-02-11T10:15:07.393Z,4.16
2018-02-11T10:17:34.893Z,4.17
2018-02-11T10:20:02.508Z,4.24
2018-02-11T10:22:30.081Z,4.31
2018-02-11T10:24:57.608Z,4.43
2018-02-11T10:27:25.152Z,4.52
2018-02-11T10:29:52.693Z,4.62
2018-02-11T10:32:20.217Z,4.83
2018-02-11T10:34:47.716Z,4.62
2018-02-11T10:37:15.248Z,4.71
2018-02-11T10:39:42.882Z,4.70
2018-02-11T10:42:10.440Z,4.61
2018-02-11T10:44:37.996Z,4.64
2018-02-11T10:47:05.529Z,4.78
2018-02-11T10:49:33.072Z,4.83
2018-02-11T10:52:00.594Z,4.87
2018-02-11T10:54:28.235Z,4.92
2018-02-11T10:56:55.981Z,4.98
2018-02-11T10:59:23.534Z,4.93
2018-02-11T11:01:51.061Z,4.94
2018-02-11T11:04:18.608Z,4.84
2018-02-11T11:06:46.114Z,4.83
2018-02-11T11:09:13.638Z,4.83
2018-02-11T11:11:41.184Z,4.69
2018-02-11T11:14:08.700Z,4.73
2018-02-11T11:16:36.228Z,4.66
2018-02-11T11:19:03.762Z,4.65
2018-02-11T11:21:31.266Z,4.62
2018-02-11T11:23:58.824Z,4.53
2018-02-11T11:26:26.479Z,4.53
2018-02-11T11:28:53.996Z,4.56
2018-02-11T11:31:21.565Z,4.62
2018-02-11T11:33:49.065Z,4.67
2018-02-11T11:36:16.726Z,4.47
2018-02-11T11:38:44.295Z,4.27
2018-02-11T11:41:11.863Z,4.36
2018-02-11T11:43:39.420Z,4.45
2018-02-11T11:46:06.933Z,4.31
2018-02-11T11:48:34.434Z,4.38
2018-02-11T11:51:02.038Z,4.26
2018-02-11T11:53:29.546Z,4.30
2018-02-11T11:55:57.116Z,4.32
2018-02-11T11:58:24.652Z,4.48
2018-02-11T12:00:52.174Z,4.37
2018-02-11T12:03:19.672Z,4.44
2018-02-11T12:05:47.230Z,4.15
2018-02-11T12:08:14.787Z,4.14
2018-02-11T12:10:42.289Z,4.20
2018-02-11T12:13:09.831Z,4.08
2018-02-11T12:15:37.362Z,4.12
2018-02-11T12:18:04.862Z,4.18
2018-02-11T12:20:32.404Z,4.29
2018-02-11T12:22:59.932Z,4.27
2018-02-11T12:25:27.464Z,4.10
2018-02-11T12:27:55.166Z,4.04
2018-02-11T12:30:22.669Z,4.00
2018-02-11T12:32:50.221Z,3.95
2018-02-11T12:35:17.762Z,3.86
2018-02-11T12:37:45.274Z,3.86
2018-02-11T12:40:12.822Z,3.76
2018-02-11T12:42:40.342Z,3.67
2018-02-11T12:45:07.837Z,3.61
2018-02-11T12:47:35.643Z,3.53
2018-02-11T12:50:03.140Z,3.40
2018-02-11T12:52:30.633Z,3.35
2018-02-11T12:54:58.184Z,3.24
2018-02-11T12:57:25.705Z,3.18
2018-02-11T12:59:53.229Z,3.20
2018-02-11T13:02:20.748Z,3.09
2018-02-11T13:04:48.373Z,3.14
2018-02-11T13:07:15.917Z,3.10
2018-02-11T13:09:43.471Z,3.05
2018-02-11T13:12:10.985Z,3.06
2018-02-11T13:14:38.721Z,3.09
2018-02-11T13:17:06.253Z,3.14
2018-02-11T13:19:33.758Z,3.16
2018-02-11T13:22:01.293Z,3.07
2018-02-11T13:24:28.830Z,3.02
2018-02-11T13:26:56.371Z,2.92
2018-02-11T13:29:24.049Z,2.94
2018-02-11T13:31:51.620Z,2.93
2018-02-11T13:34:19.156Z,2.93
2018-02-11T13:36:46.688Z,2.88
2018-02-11T13:39:14.218Z,2.80
2018-02-11T13:41:41.756Z,2.84
2018-02-11T13:44:09.321Z,2.79
2018-02-11T13:46:36.842Z,2.77
2018-02-11T13:49:04.440Z,2.72
2018-02-11T13:51:31.941Z,2.77
2018-02-11T13:53:59.466Z,2.78
2018-02-11T13:56:27.012Z,2.79
2018-02-11T13:58:54.553Z,2.73
2018-02-11T14:01:22.127Z,2.69
2018-02-11T14:03:49.764Z,2.67
2018-02-11T14:06:17.388Z,2.56
2018-02-11T14:08:44.906Z,2.49
2018-02-11T14:11:12.645Z,2.44
2018-02-11T14:13:40.156Z,2.40
2018-02-11T14:16:07.658Z,2.41
2018-02-11T14:18:35.226Z,2.35
2018-02-11T14:21:02.732Z,2.39
2018-02-11T14:23:30.232Z,2.31
2018-02-11T14:25:57.773Z,2.32
2018-02-11T14:28:25.281Z,2.34
2018-02-11T14:30:52.828Z,2.36
2018-02-11T14:33:20.349Z,2.35
2018-02-11T14:35:47.947Z,2.30
2018-02-11T14:38:15.528Z,2.27
2018-02-11T14:40:43.057Z,2.20
2018-02-11T14:43:10.646Z,2.12
2018-02-11T14:45:38.401Z,2.13
2018-02-11T14:48:05.948Z,2.13
2018-02-11T14:50:33.478Z,2.02
2018-02-11T14:53:01.047Z,1.98
2018-02-11T14:55:28.629Z,1.98
2018-02-11T14:57:56.200Z,1.99
2018-02-11T15:00:23.845Z,1.93
2018-02-11T15:02:51.358Z,1.92
2018-02-11T15:05:19.037Z,1.90
2018-02-11T15:07:46.644Z,1.87
2018-02-11T15:10:14.242Z,1.87
2018-02-11T15:12:41.741Z,1.86
2018-02-11T15:15:09.244Z,1.87
2018-02-11T15:20:10.751Z,1.94
2018-02-11T15:22:38.280Z,1.92
2018-02-11T15:25:05.806Z,1.91
2018-02-11T15:27:33.361Z,1.95
2018-02-11T15:30:00.872Z,1.95
2018-02-11T15:32:28.462Z,2.02
2018-02-11T15:34:56.000Z,1.98
2018-02-11T15:37:23.517Z,1.99
2018-02-11T15:39:51.021Z,2.04
2018-02-11T15:42:18.557Z,2.05
2018-02-11T15:44:46.058Z,2.04
2018-02-11T15:47:13.632Z,2.12
2018-02-11T15:49:41.138Z,2.12
2018-02-11T15:52:08.661Z,2.11
2018-02-11T15:54:36.209Z,2.10
2018-02-11T15:57:03.740Z,2.07
2018-02-11T15:59:31.247Z,2.10
2018-02-11T16:01:58.892Z,2.10
2018-02-11T16:04:26.457Z,2.10
2018-02-11T16:06:53.983Z,2.08
2018-02-11T16:09:21.537Z,2.08
2018-02-11T16:11:49.051Z,2.12
2018-02-11T16:14:16.570Z,2.19
2018-02-11T16:16:44.086Z,2.21
2018-02-11T16:19:11.628Z,2.23
2018-02-11T16:21:39.239Z,2.28
2018-02-11T16:24:06.779Z,2.30
2018-02-11T16:26:34.292Z,2.31
2018-02-11T16:29:01.829Z,2.32
2018-02-11T16:31:29.380Z,2.34
2018-02-11T16:33:57.056Z,2.31
2018-02-11T16:36:24.560Z,2.33
2018-02-11T16:38:52.053Z,2.30
2018-02-11T16:41:19.599Z,2.28
2018-02-11T16:43:47.171Z,2.28
2018-02-11T16:46:14.725Z,2.30
2018-02-11T16:48:42.298Z,2.33
2018-02-11T16:51:09.845Z,2.36
2018-02-11T16:53:37.349Z,2.38
2018-02-11T16:56:04.884Z,2.41
2018-02-11T16:58:32.433Z,2.42
2018-02-11T17:00:59.981Z,2.40
2018-02-11T17:03:27.546Z,2.41
2018-02-11T17:05:55.124Z,2.42
2018-02-11T17:08:22.693Z,2.40
2018-02-11T17:10:50.331Z,2.40
2018-02-11T17:13:17.921Z,2.43
2018-02-11T17:15:46.371Z,2.47
2018-02-11T17:18:13.872Z,2.40
2018-02-11T17:20:41.386Z,2.42
2018-02-11T17:23:08.925Z,2.43
2018-02-11T17:25:36.525Z,2.46
2018-02-11T17:28:04.220Z,2.49
2018-02-11T17:30:31.748Z,2.52
2018-02-11T17:32:59.281Z,2.50
2018-02-11T17:35:26.794Z,2.48
2018-02-11T17:37:54.302Z,2.48
2018-02-11T17:40:21.821Z,2.49
2018-02-11T17:42:49.355Z,2.47
2018-02-11T17:45:16.853Z,2.43
2018-02-11T17:47:44.449Z,2.36
2018-02-11T17:50:12.018Z,2.32
2018-02-11T17:52:39.529Z,2.32
2018-02-11T17:55:07.109Z,2.35
2018-02-11T17:57:34.603Z,2.39
2018-02-11T18:00:02.107Z,2.42
2018-02-11T18:02:29.620Z,2.44
2018-02-11T18:04:57.203Z,2.48
2018-02-11T18:07:24.809Z,2.59
2018-02-11T18:09:52.385Z,2.59
2018-02-11T18:12:19.953Z,2.59
2018-02-11T18:14:47.460Z,2.58
2018-02-11T18:17:14.961Z,2.54
2018-02-11T18:19:42.489Z,2.58
2018-02-11T18:22:10.071Z,2.61
2018-02-11T18:24:37.571Z,2.63
2018-02-11T18:27:05.103Z,2.62
2018-02-11T18:29:32.600Z,2.60
2018-02-11T18:32:00.195Z,2.61
2018-02-11T18:34:27.724Z,2.59
2018-02-11T18:36:55.241Z,2.60
2018-02-11T18:39:22.973Z,2.60
2018-02-11T18:41:50.464Z,2.58
2018-02-11T18:44:17.990Z,2.58
2018-02-11T18:46:45.525Z,2.57
2018-02-11T18:49:13.081Z,2.61
2018-02-11T18:51:40.616Z,2.63
2018-02-11T18:54:08.176Z,2.64
2018-02-11T18:56:35.734Z,2.68
2018-02-11T18:59:03.249Z,2.69
2018-02-11T19:01:30.751Z,2.70
2018-02-11T19:03:58.253Z,2.71
2018-02-11T19:06:25.921Z,2.70
2018-02-11T19:08:53.421Z,2.68
2018-02-11T19:11:20.943Z,2.67
2018-02-11T19:13:48.473Z,2.68
2018-02-11T19:16:15.992Z,2.65
2018-02-11T19:18:43.525Z,2.66
2018-02-11T19:21:11.060Z,2.65
2018-02-11T19:23:38.581Z,2.62
2018-02-11T19:26:06.137Z,2.64
2018-02-11T19:28:33.669Z,2.65
2018-02-11T19:31:01.317Z,2.64
2018-02-11T19:33:28.833Z,2.64
2018-02-11T19:35:56.369Z,2.68
2018-02-11T19:38:23.900Z,2.67
2018-02-11T19:40:51.426Z,2.67
2018-02-11T19:43:19.020Z,2.69
2018-02-11T19:45:46.554Z,2.68
2018-02-11T19:48:14.144Z,2.66
2018-02-11T19:50:41.674Z,2.69
2018-02-11T19:53:09.249Z,2.69
2018-02-11T19:55:36.744Z,2.70
2018-02-11T19:58:04.237Z,2.70
2018-02-11T20:00:31.776Z,2.68
2018-02-11T20:02:59.387Z,2.70
2018-02-11T20:05:26.945Z,2.70
2018-02-11T20:07:54.503Z,2.71
2018-02-11T20:10:22.034Z,2.70
2018-02-11T20:12:49.552Z,2.69
2018-02-11T20:15:17.099Z,2.66
2018-02-11T20:17:44.597Z,2.65
2018-02-11T20:20:12.144Z,2.66
2018-02-11T20:22:39.679Z,2.65
2018-02-11T20:25:07.181Z,2.67
2018-02-11T20:27:34.736Z,2.62
2018-02-11T20:30:02.237Z,2.56
2018-02-11T20:32:29.784Z,2.50
2018-02-11T20:34:57.356Z,2.42
2018-02-11T20:37:24.883Z,2.41
2018-02-11T20:39:52.405Z,2.39
2018-02-11T20:42:19.913Z,2.38
2018-02-11T20:44:47.428Z,2.36
2018-02-11T20:47:14.973Z,2.33
2018-02-11T20:49:42.493Z,2.35
2018-02-11T20:52:10.009Z,2.40
2018-02-11T20:54:37.547Z,2.44
2018-02-11T20:57:05.056Z,2.48
2018-02-11T20:59:32.734Z,2.48
2018-02-11T21:02:00.230Z,2.46
2018-02-11T21:04:27.774Z,2.42
2018-02-11T21:06:55.308Z,2.37
2018-02-11T21:09:22.873Z,2.32
2018-02-11T21:11:50.453Z,2.31
2018-02-11T21:14:18.109Z,2.27
2018-02-11T21:16:45.661Z,2.27
2018-02-11T21:19:13.168Z,2.21
2018-02-11T21:21:40.875Z,2.19
2018-02-11T21:24:08.429Z,2.16
2018-02-11T21:26:35.934Z,2.15
2018-02-11T21:29:03.465Z,2.10
2018-02-11T21:31:31.003Z,2.07
2018-02-11T21:33:58.585Z,2.03
2018-02-11T21:36:26.141Z,2.02
2018-02-11T21:38:53.684Z,2.02
2018-02-11T21:41:21.184Z,2.03
2018-02-11T21:43:49.263Z,2.01
2018-02-11T21:46:16.761Z,1.98
2018-02-11T21:48:44.439Z,1.97
2018-02-11T21:51:12.000Z,1.96
2018-02-11T21:53:40.009Z,1.99
2018-02-11T21:56:07.630Z,2.00
2018-02-11T21:58:35.164Z,2.02
2018-02-11T22:01:02.667Z,2.06
2018-02-11T22:03:30.327Z,2.07
2018-02-11T22:05:57.852Z,2.09
2018-02-11T22:08:25.385Z,2.09
2018-02-11T22:10:52.933Z,2.06
2018-02-11T22:13:20.434Z,2.07
2018-02-11T22:15:47.928Z,2.06
2018-02-11T22:18:15.440Z,2.05
2018-02-11T22:20:42.993Z,2.04
2018-02-11T22:23:10.497Z,2.00
2018-02-11T22:25:38.027Z,1.93
2018-02-11T22:28:05.718Z,1.90
2018-02-11T22:30:33.257Z,1.86
2018-02-11T22:33:00.808Z,1.87
2018-02-11T22:35:28.447Z,1.89
2018-02-11T22:37:55.976Z,1.91
2018-02-11T22:40:23.496Z,1.95
2018-02-11T22:42:51.041Z,1.98
2018-02-11T22:45:18.845Z,1.97
2018-02-11T22:47:46.369Z,1.96
2018-02-11T22:50:14.030Z,1.98
2018-02-11T22:52:41.613Z,1.96
2018-02-11T22:55:09.115Z,1.97
2018-02-11T22:57:36.644Z,1.93
2018-02-11T23:00:04.208Z,1.86
2018-02-11T23:02:31.731Z,1.83
2018-02-11T23:04:59.257Z,1.82
2018-02-11T23:07:26.796Z,1.78
2018-02-11T23:09:54.317Z,1.73
2018-02-11T23:12:21.884Z,1.67
2018-02-11T23:14:49.426Z,1.64
2018-02-11T23:17:16.982Z,1.59
2018-02-11T23:19:51.524Z,1.57
2018-02-11T23:22:19.036Z,1.56
2018-02-11T23:24:46.553Z,1.54
2018-02-11T23:27:14.065Z,1.50
2018-02-11T23:29:41.631Z,1.51
2018-02-11T23:32:09.216Z,1.51
2018-02-11T23:34:36.776Z,1.53
2018-02-11T23:37:04.306Z,1.49
2018-02-11T23:39:32.003Z,1.46
2018-02-11T23:41:59.506Z,1.44
2018-02-11T23:44:27.120Z,1.42
2018-02-11T23:46:54.865Z,1.41
2018-02-11T23:49:22.392Z,1.38
2018-02-11T23:51:49.917Z,1.36
2018-02-11T23:54:17.469Z,1.34
2018-02-11T23:56:45.029Z,1.30
2018-02-11T23:59:12.536Z,1.26
